Time;durP1;ratioP1;P1;durP2;ratioP2;P2;SDS_P1;SDS_P2;PMS_P1;PMS_P2;Temp;Humidity;BMP_temperature;BMP_pressure;BME280_temperature;BME280_humidity;BME280_pressure;Samples;Min_cycle;Max_cycle;Signal;HPM_P1;HPM_P2
2022/03/30 00:00:49;;;;;;;3.90;2.40;;;;;;;-6.00;69.19;99489.69;5087038;28;20589;-71
2022/03/30 00:03:15;;;;;;;4.55;2.20;;;;;;;-5.95;69.29;99486.41;5109458;28;20036;-71
2022/03/30 00:05:40;;;;;;;3.92;2.03;;;;;;;-5.92;69.46;99477.97;5094092;28;20513;-72
2022/03/30 00:08:06;;;;;;;4.65;2.25;;;;;;;-5.95;69.68;99476.53;5097116;28;20040;-71
2022/03/30 00:10:32;;;;;;;3.20;2.13;;;;;;;-5.91;68.86;99476.97;5094124;28;20406;-71
2022/03/30 00:12:59;;;;;;;2.33;2.05;;;;;;;-5.92;69.27;99484.16;5081366;28;20119;-71
2022/03/30 00:15:25;;;;;;;2.63;1.90;;;;;;;-5.92;68.74;99473.47;5100694;28;20126;-71
2022/03/30 00:17:51;;;;;;;3.25;2.03;;;;;;;-5.88;68.81;99477.38;5111823;28;20562;-71
2022/03/30 00:20:17;;;;;;;3.78;1.50;;;;;;;-5.91;69.26;99480.44;5095795;28;20061;-72
2022/03/30 00:22:43;;;;;;;3.15;1.73;;;;;;;-5.91;68.92;99476.97;5093915;28;20032;-72
2022/03/30 00:25:10;;;;;;;2.13;1.55;;;;;;;-5.90;68.67;99476.78;5102112;28;20044;-72
2022/03/30 00:27:36;;;;;;;3.22;1.90;;;;;;;-6.00;68.56;99475.50;5079417;28;20050;-72
2022/03/30 00:30:04;;;;;;;2.85;2.00;;;;;;;-6.04;68.56;99471.63;5097243;28;20405;-71
2022/03/30 00:32:30;;;;;;;2.95;1.65;;;;;;;-6.09;68.20;99464.19;5094663;28;20037;-72
2022/03/30 00:34:55;;;;;;;4.68;1.65;;;;;;;-6.08;68.06;99465.81;5075283;28;20032;-71
2022/03/30 00:37:21;;;;;;;4.28;1.80;;;;;;;-6.10;68.84;99468.72;5100446;28;20100;-72
2022/03/30 00:39:47;;;;;;;2.08;1.55;;;;;;;-6.14;69.00;99466.66;5096000;28;20031;-72
2022/03/30 00:42:17;;;;;;;2.35;1.50;;;;;;;-6.13;68.50;99462.97;5102098;28;20438;-72
2022/03/30 00:44:43;;;;;;;4.22;1.80;;;;;;;-6.04;68.77;99469.75;5093777;28;20048;-71
2022/03/30 00:47:27;;;;;;;3.28;2.03;;;;;;;-5.97;68.50;99467.09;5097328;28;20036;-72
2022/03/30 00:49:53;;;;;;;3.22;1.92;;;;;;;-5.92;68.68;99469.97;5102117;28;20032;-71
2022/03/30 00:52:20;;;;;;;4.75;2.05;;;;;;;-5.92;68.43;99469.97;5093445;28;20123;-71
2022/03/30 00:54:48;;;;;;;5.32;2.28;;;;;;;-5.92;68.59;99465.44;5094526;28;20032;-71
2022/03/30 00:57:15;;;;;;;2.08;1.80;;;;;;;-5.94;68.49;99466.69;5092507;28;20036;-70
2022/03/30 00:59:41;;;;;;;3.88;2.20;;;;;;;-5.91;68.37;99472.44;5097524;28;20062;-70
2022/03/30 01:02:07;;;;;;;3.83;2.25;;;;;;;-5.93;68.47;99465.66;5110202;28;20387;-71
2022/03/30 01:04:33;;;;;;;3.65;1.90;;;;;;;-5.92;68.53;99456.63;5100217;28;20032;-71
2022/03/30 01:06:59;;;;;;;3.20;1.80;;;;;;;-5.93;68.81;99458.47;5099313;28;20097;-72
2022/03/30 01:09:25;;;;;;;5.10;2.35;;;;;;;-5.96;68.92;99458.06;5100639;28;20039;-72
2022/03/30 01:11:53;;;;;;;4.38;2.40;;;;;;;-5.99;68.75;99455.78;5094103;28;20036;-72
2022/03/30 01:14:19;;;;;;;2.45;1.70;;;;;;;-6.04;68.84;99453.75;5106432;28;20061;-72
2022/03/30 01:16:45;;;;;;;5.22;1.98;;;;;;;-6.03;68.60;99451.91;5085342;28;20047;-71
2022/03/30 01:19:11;;;;;;;2.78;1.85;;;;;;;-6.10;69.32;99457.19;5082405;28;20057;-72
2022/03/30 01:21:38;;;;;;;3.25;2.13;;;;;;;-6.10;69.65;99452.69;5097599;28;20064;-72
2022/03/30 01:24:06;;;;;;;2.40;1.50;;;;;;;-6.07;69.82;99456.81;5103396;28;20052;-71
2022/03/30 01:26:32;;;;;;;4.05;1.95;;;;;;;-6.16;69.93;99458.03;5106054;28;20074;-72
2022/03/30 01:28:58;;;;;;;3.72;2.00;;;;;;;-6.18;70.31;99455.56;5101652;28;20036;-72
2022/03/30 01:34:08;;;;;;;3.70;2.00;;;;;;;-6.23;70.08;99455.34;5102188;28;20116;-72
2022/03/30 01:36:37;;;;;;;7.03;1.77;;;;;;;-6.27;70.52;99455.94;5083129;28;20131;-71
2022/03/30 01:39:04;;;;;;;4.57;1.85;;;;;;;-6.28;70.89;99454.28;5091781;28;20036;-72
2022/03/30 01:41:29;;;;;;;3.38;1.65;;;;;;;-6.26;70.40;99452.22;5074398;28;20514;-72
2022/03/30 01:43:56;;;;;;;4.65;1.70;;;;;;;-6.25;70.84;99459.22;5097422;28;20044;-72
2022/03/30 01:46:22;;;;;;;4.55;1.63;;;;;;;-6.21;71.26;99455.16;5093098;28;20035;-71
2022/03/30 01:48:48;;;;;;;3.70;1.83;;;;;;;-6.25;70.97;99460.03;5106865;28;20112;-71
2022/03/30 01:51:14;;;;;;;4.07;2.40;;;;;;;-6.25;71.38;99461.88;5104319;28;20085;-71
2022/03/30 01:53:41;;;;;;;4.28;1.90;;;;;;;-6.26;71.22;99452.22;5102762;28;20055;-72
2022/03/30 01:56:06;;;;;;;3.28;1.80;;;;;;;-6.23;70.84;99459.88;5103807;28;20039;-72
2022/03/30 01:58:32;;;;;;;1.90;1.48;;;;;;;-6.21;71.28;99458.63;5102853;28;20058;-71
2022/03/30 02:00:58;;;;;;;4.28;1.85;;;;;;;-6.23;71.24;99452.69;5105547;28;20039;-71
2022/03/30 02:03:23;;;;;;;6.10;2.20;;;;;;;-6.29;71.31;99455.31;5088473;28;20545;-72
2022/03/30 02:05:49;;;;;;;2.78;2.00;;;;;;;-6.30;71.88;99456.34;5092337;28;20558;-71
2022/03/30 02:08:15;;;;;;;4.05;2.20;;;;;;;-6.31;71.85;99460.03;5097525;28;20036;-71
2022/03/30 02:10:41;;;;;;;1.98;1.40;;;;;;;-6.34;71.61;99447.91;5102188;28;20040;-72
2022/03/30 02:13:06;;;;;;;3.25;1.75;;;;;;;-6.33;71.94;99456.75;5103193;28;20112;-71
2022/03/30 02:15:32;;;;;;;3.33;2.40;;;;;;;-6.28;71.31;99454.28;5108704;28;20044;-71
2022/03/30 02:17:59;;;;;;;3.72;2.03;;;;;;;-6.31;71.46;99449.34;5101317;28;20467;-72
2022/03/30 02:20:25;;;;;;;2.90;1.92;;;;;;;-6.32;71.97;99453.06;5102243;28;20028;-72
2022/03/30 02:22:50;;;;;;;3.63;2.20;;;;;;;-6.34;72.46;99458.59;5098459;28;20032;-71
2022/03/30 02:25:16;;;;;;;5.43;2.20;;;;;;;-6.33;71.92;99462.91;5098929;28;20046;-71
2022/03/30 02:27:42;;;;;;;5.45;2.00;;;;;;;-6.33;71.97;99462.09;5110988;28;20083;-71
2022/03/30 02:30:08;;;;;;;4.15;1.92;;;;;;;-6.42;72.19;99464.09;5079414;28;20038;-72
2022/03/30 02:32:36;;;;;;;2.63;1.83;;;;;;;-6.50;72.21;99464.28;5091454;28;20036;-72
2022/03/30 02:35:03;;;;;;;2.85;1.65;;;;;;;-6.58;72.25;99454.63;5093343;28;20062;-71
2022/03/30 02:37:29;;;;;;;2.83;1.98;;;;;;;-6.59;71.71;99458.31;5110092;28;20565;-71
2022/03/30 02:39:54;;;;;;;4.32;1.95;;;;;;;-6.58;71.36;99462.63;5074958;28;20040;-72
2022/03/30 02:42:20;;;;;;;2.75;1.85;;;;;;;-6.58;71.25;99459.97;5081971;28;20537;-71
2022/03/30 02:44:46;;;;;;;4.03;1.98;;;;;;;-6.57;71.14;99458.13;5107894;28;20039;-72
2022/03/30 02:47:11;;;;;;;3.10;1.73;;;;;;;-6.54;71.30;99455.03;5100247;28;20043;-71
2022/03/30 02:49:38;;;;;;;3.78;1.85;;;;;;;-6.51;70.74;99462.63;5092917;28;20024;-72
2022/03/30 02:52:04;;;;;;;3.15;1.95;;;;;;;-6.52;71.29;99455.66;5095710;28;20454;-71
2022/03/30 02:54:30;;;;;;;2.83;1.85;;;;;;;-6.53;71.58;99456.69;5084681;28;20028;-71
2022/03/30 02:56:56;;;;;;;1.95;1.70;;;;;;;-6.49;71.75;99458.75;5105586;28;20028;-70
2022/03/30 02:59:22;;;;;;;6.95;2.60;;;;;;;-6.48;72.00;99460.38;5079500;28;20036;-70
2022/03/30 03:01:49;;;;;;;3.42;2.05;;;;;;;-6.44;72.48;99464.28;5100573;28;20031;-73
2022/03/30 03:04:15;;;;;;;3.10;2.13;;;;;;;-6.43;72.40;99468.59;5092111;28;20032;-70
2022/03/30 03:06:40;;;;;;;5.63;2.15;;;;;;;-6.42;72.54;99456.94;5095077;28;20036;-72
2022/03/30 03:09:08;;;;;;;4.18;2.28;;;;;;;-6.39;72.61;99459.19;5085508;28;20038;-72
2022/03/30 03:11:34;;;;;;;3.65;2.10;;;;;;;-6.39;73.28;99459.19;5091285;28;20028;-71
2022/03/30 03:14:05;;;;;;;3.40;2.10;;;;;;;-6.41;72.63;99450.56;5091449;28;20027;-72
2022/03/30 03:16:32;;;;;;;5.55;2.55;;;;;;;-6.31;73.43;99446.69;5100974;28;20039;-72
2022/03/30 03:18:57;;;;;;;4.20;2.20;;;;;;;-6.33;73.31;99449.56;5090119;28;20038;-71
2022/03/30 03:21:23;;;;;;;4.97;2.58;;;;;;;-6.38;73.28;99457.34;5087064;28;20032;-71
2022/03/30 03:23:48;;;;;;;5.43;2.20;;;;;;;-6.42;73.08;99454.28;5108661;28;20176;-71
2022/03/30 03:26:14;;;;;;;2.90;2.00;;;;;;;-6.39;73.54;99450.38;5090940;28;20044;-71
2022/03/30 03:28:40;;;;;;;4.25;2.40;;;;;;;-6.42;74.00;99458.75;5090562;28;20119;-71
2022/03/30 03:31:05;;;;;;;4.85;2.25;;;;;;;-6.42;73.96;99451.59;5109337;28;20411;-71
2022/03/30 03:33:32;;;;;;;3.53;2.33;;;;;;;-6.40;73.77;99452.22;5113239;28;20135;-71
2022/03/30 03:35:58;;;;;;;3.72;2.15;;;;;;;-6.41;74.08;99455.91;5102518;28;20035;-71
2022/03/30 03:38:24;;;;;;;3.88;2.30;;;;;;;-6.39;74.44;99453.88;5107178;28;20040;-71
2022/03/30 03:40:50;;;;;;;3.35;2.10;;;;;;;-6.28;73.63;99451.63;5096265;28;20148;-71
2022/03/30 03:43:16;;;;;;;3.85;2.22;;;;;;;-6.20;73.80;99456.78;5110187;28;20040;-71
2022/03/30 03:45:42;;;;;;;3.08;1.88;;;;;;;-6.17;74.39;99453.72;5110844;28;20036;-71
2022/03/30 03:48:08;;;;;;;2.75;1.90;;;;;;;-6.16;74.31;99450.84;5086600;28;20051;-71
2022/03/30 03:50:34;;;;;;;3.28;2.05;;;;;;;-6.10;74.86;99455.34;5102352;27;20031;-71
2022/03/30 03:53:01;;;;;;;3.55;2.20;;;;;;;-6.06;73.92;99447.78;5093773;28;20057;-71
2022/03/30 03:55:27;;;;;;;4.43;1.88;;;;;;;-6.05;74.88;99456.63;5106577;28;20047;-71
2022/03/30 03:57:53;;;;;;;3.25;2.15;;;;;;;-5.98;74.40;99452.09;5084110;28;20533;-71
2022/03/30 04:00:19;;;;;;;3.65;2.17;;;;;;;-5.92;74.24;99449.44;5109861;27;20046;-72
2022/03/30 04:02:44;;;;;;;3.20;1.88;;;;;;;-5.96;74.42;99448.19;5082259;28;20152;-71
2022/03/30 04:05:12;;;;;;;2.97;1.80;;;;;;;-5.95;73.61;99451.69;5089609;28;20069;-71
2022/03/30 04:07:38;;;;;;;3.50;1.90;;;;;;;-5.91;73.96;99448.41;5089001;28;20036;-70
2022/03/30 04:10:05;;;;;;;2.42;1.77;;;;;;;-5.83;73.94;99450.84;5089825;28;20046;-71
2022/03/30 04:12:30;;;;;;;3.28;1.70;;;;;;;-5.69;73.92;99441.00;5095126;28;20038;-72
2022/03/30 04:14:56;;;;;;;2.13;1.40;;;;;;;-5.60;72.92;99442.44;5107331;28;20118;-70
2022/03/30 04:17:22;;;;;;;2.22;1.58;;;;;;;-5.63;73.34;99447.38;5105551;28;20044;-71
2022/03/30 04:19:47;;;;;;;3.28;2.47;;;;;;;-5.56;72.49;99445.50;5091925;28;20063;-71
2022/03/30 04:22:14;;;;;;;2.22;1.67;;;;;;;-5.47;72.55;99437.09;5106427;28;20051;-71
2022/03/30 04:24:40;;;;;;;3.53;1.70;;;;;;;-5.51;71.68;99443.06;5113562;28;20494;-71
2022/03/30 04:27:05;;;;;;;2.70;1.80;;;;;;;-5.54;71.16;99446.97;5093144;28;20035;-71
2022/03/30 04:29:31;;;;;;;1.90;1.58;;;;;;;-5.47;71.40;99447.78;5105416;28;20438;-71
2022/03/30 04:31:56;;;;;;;3.13;1.85;;;;;;;-5.30;70.83;99452.69;5099122;28;20036;-71
2022/03/30 04:34:22;;;;;;;4.00;1.80;;;;;;;-5.08;70.90;99455.94;5099760;28;20061;-71
2022/03/30 04:36:48;;;;;;;2.67;1.85;;;;;;;-4.87;69.36;99447.66;5099163;28;20109;-72
2022/03/30 04:39:13;;;;;;;2.75;1.73;;;;;;;-4.78;68.80;99449.09;5093381;28;20036;-72
2022/03/30 04:41:39;;;;;;;2.38;1.75;;;;;;;-4.37;68.14;99454.06;5089785;28;20051;-72
2022/03/30 04:44:05;;;;;;;2.75;1.55;;;;;;;-4.01;67.38;99447.25;5103716;28;20403;-71
2022/03/30 04:46:31;;;;;;;4.30;1.95;;;;;;;-3.69;66.42;99448.06;5094492;28;20417;-71
2022/03/30 04:48:56;;;;;;;3.40;1.80;;;;;;;-3.11;65.55;99447.78;5075557;28;20105;-72
2022/03/30 04:51:29;;;;;;;3.70;2.00;;;;;;;-2.58;63.46;99444.53;5093277;28;20044;-71
2022/03/30 04:53:55;;;;;;;3.63;1.70;;;;;;;-2.08;62.50;99444.28;5080776;28;20047;-71
2022/03/30 04:56:21;;;;;;;3.67;2.13;;;;;;;-1.85;60.88;99439.81;5105363;28;20039;-71
2022/03/30 04:58:47;;;;;;;2.58;1.65;;;;;;;-1.63;60.40;99442.78;5094892;28;20043;-71
2022/03/30 05:01:12;;;;;;;3.85;2.10;;;;;;;-1.20;58.91;99443.53;5096116;28;20414;-71
2022/03/30 05:03:38;;;;;;;3.72;2.20;;;;;;;-0.83;57.74;99444.94;5105325;28;20070;-72
2022/03/30 05:06:03;;;;;;;2.72;1.90;;;;;;;-0.54;57.21;99445.78;5091043;28;20138;-71
2022/03/30 05:08:29;;;;;;;3.45;1.92;;;;;;;-0.52;56.21;99445.53;5096404;28;20414;-71
2022/03/30 05:10:55;;;;;;;5.40;1.92;;;;;;;-1.10;57.05;99441.88;5094383;28;20101;-71
2022/03/30 05:13:21;;;;;;;4.40;2.33;;;;;;;-0.89;56.97;99445.84;5092976;28;20085;-72
2022/03/30 05:15:46;;;;;;;3.67;2.08;;;;;;;-0.98;56.78;99440.00;5083626;28;20048;-71
2022/03/30 05:18:12;;;;;;;4.47;2.40;;;;;;;-1.43;57.55;99438.94;5099230;28;20552;-72
2022/03/30 05:20:41;;;;;;;2.58;2.00;;;;;;;-1.74;58.05;99438.19;5109994;28;20042;-71
2022/03/30 05:23:07;;;;;;;3.05;1.95;;;;;;;-1.87;58.99;99430.34;5094660;28;20043;-71
2022/03/30 05:25:33;;;;;;;2.63;1.70;;;;;;;-1.92;59.25;99438.25;5083741;28;20048;-72
2022/03/30 05:27:58;;;;;;;3.15;1.80;;;;;;;-1.89;59.92;99441.31;5094010;28;20125;-72
2022/03/30 05:30:24;;;;;;;3.50;1.88;;;;;;;-2.12;59.52;99439.34;5093305;28;20093;-71
2022/03/30 05:32:50;;;;;;;4.70;2.17;;;;;;;-2.58;60.63;99439.97;5092415;28;20036;-72
2022/03/30 05:35:16;;;;;;;3.63;1.95;;;;;;;-2.66;60.67;99445.63;5099539;28;20040;-71
2022/03/30 05:37:45;;;;;;;5.38;2.08;;;;;;;-2.63;61.36;99444.38;5095923;28;20043;-71
2022/03/30 05:40:11;;;;;;;3.22;2.00;;;;;;;-2.51;61.63;99446.06;5103803;28;20039;-71
2022/03/30 05:42:36;;;;;;;5.65;2.22;;;;;;;-2.40;60.98;99447.19;5097528;28;20566;-70
2022/03/30 05:45:04;;;;;;;5.18;2.08;;;;;;;-2.30;61.65;99449.31;5076851;28;20047;-72
2022/03/30 05:47:30;;;;;;;5.28;2.00;;;;;;;-2.04;61.04;99443.63;5104225;28;20140;-72
2022/03/30 05:49:56;;;;;;;5.32;1.98;;;;;;;-2.00;61.06;99438.59;5073877;28;20127;-72
2022/03/30 05:52:21;;;;;;;3.35;1.77;;;;;;;-2.07;60.31;99446.75;5102042;28;20032;-72
2022/03/30 05:54:47;;;;;;;3.42;2.17;;;;;;;-1.70;60.17;99443.94;5100129;28;20039;-72
2022/03/30 05:57:13;;;;;;;2.53;1.95;;;;;;;-0.66;59.21;99448.53;5099728;28;20065;-72
2022/03/30 05:59:41;;;;;;;5.15;1.73;;;;;;;0.04;56.60;99450.19;5078653;28;20032;-72
2022/03/30 06:02:09;;;;;;;3.60;2.13;;;;;;;-0.10;55.91;99443.44;5098986;28;20046;-72
2022/03/30 06:04:36;;;;;;;3.50;1.92;;;;;;;-0.04;56.01;99450.56;5112187;28;20050;-72
2022/03/30 06:07:02;;;;;;;3.35;1.70;;;;;;;-0.04;55.35;99443.28;5075468;28;20039;-71
2022/03/30 06:09:28;;;;;;;3.25;1.60;;;;;;;-0.09;56.06;99451.28;5074038;28;20047;-72
2022/03/30 06:11:54;;;;;;;4.53;1.70;;;;;;;-0.25;55.82;99441.25;5099756;28;20040;-72
2022/03/30 06:14:20;;;;;;;8.30;2.17;;;;;;;-0.36;56.04;99445.63;5090674;28;20467;-72
2022/03/30 06:16:47;;;;;;;5.30;1.92;;;;;;;-0.66;57.52;99451.22;5095882;28;20043;-72
2022/03/30 06:19:13;;;;;;;4.63;2.05;;;;;;;-0.80;58.06;99446.31;5093259;28;20039;-70
2022/03/30 06:21:42;;;;;;;3.47;1.98;;;;;;;-0.84;58.39;99453.25;5111175;28;20075;-72
2022/03/30 06:24:11;;;;;;;2.92;1.70;;;;;;;-0.51;58.56;99453.41;5110688;28;20035;-72
2022/03/30 06:26:38;;;;;;;4.45;1.95;;;;;;;0.24;57.66;99445.16;5106631;28;20502;-72
2022/03/30 06:29:04;;;;;;;3.83;1.92;;;;;;;0.89;56.37;99439.19;5091291;28;20040;-71
2022/03/30 06:31:31;;;;;;;4.43;2.05;;;;;;;1.56;54.26;99446.31;5104192;28;20045;-71
2022/03/30 06:33:57;;;;;;;5.72;2.13;;;;;;;2.25;53.13;99448.44;5091733;28;20487;-72
2022/03/30 06:36:23;;;;;;;3.75;2.10;;;;;;;2.58;51.49;99433.84;5091905;28;20043;-72
2022/03/30 06:38:49;;;;;;;3.45;2.10;;;;;;;2.29;51.21;99438.75;5091626;28;20067;-72
2022/03/30 06:41:19;;;;;;;3.92;1.85;;;;;;;1.83;52.05;99438.25;5092290;28;20109;-71
2022/03/30 06:43:46;;;;;;;4.53;1.70;;;;;;;1.44;52.22;99441.03;5080494;28;20522;-72
2022/03/30 06:46:15;;;;;;;4.15;1.67;;;;;;;0.58;54.22;99453.28;5091427;28;20587;-73
2022/03/30 06:48:41;;;;;;;6.75;1.58;;;;;;;0.26;55.15;99453.00;5091048;28;20513;-71
2022/03/30 06:51:07;;;;;;;4.25;2.17;;;;;;;-0.27;56.09;99454.16;5094926;28;20491;-72
2022/03/30 06:53:33;;;;;;;11.95;2.13;;;;;;;-0.17;56.78;99459.78;5073242;28;20075;-72
2022/03/30 06:55:58;;;;;;;4.18;2.13;;;;;;;0.04;57.57;99455.56;5070538;28;20048;-71
2022/03/30 06:58:24;;;;;;;5.82;1.92;;;;;;;0.91;56.58;99449.75;5104489;28;20047;-72
2022/03/30 07:00:50;;;;;;;4.70;1.92;;;;;;;1.19;55.42;99446.09;5081195;28;20036;-72
2022/03/30 07:03:16;;;;;;;6.32;2.10;;;;;;;1.65;54.52;99436.69;5090602;28;20036;-72
2022/03/30 07:05:41;;;;;;;4.63;1.58;;;;;;;1.70;53.95;99446.75;5090642;28;20036;-71
2022/03/30 07:10:51;;;;;;;3.92;1.35;;;;;;;1.06;54.93;99447.28;5100046;28;20394;-72
2022/03/30 07:13:17;;;;;;;2.00;0.95;;;;;;;0.56;55.68;99450.00;5085079;28;20027;-72
2022/03/30 07:15:43;;;;;;;4.15;1.30;;;;;;;0.21;56.54;99450.22;5090866;28;20109;-72
2022/03/30 07:18:08;;;;;;;4.90;1.67;;;;;;;-0.06;57.28;99458.88;5100196;28;20122;-72
2022/03/30 07:20:35;;;;;;;7.78;1.50;;;;;;;-0.06;57.87;99456.19;5109078;28;20066;-72
2022/03/30 07:23:01;;;;;;;2.97;1.17;;;;;;;0.08;57.95;99454.03;5092083;28;20511;-72
2022/03/30 07:25:28;;;;;;;2.00;1.33;;;;;;;0.17;57.78;99451.75;5091528;28;20414;-73
2022/03/30 07:27:58;;;;;;;2.63;1.05;;;;;;;0.00;57.43;99454.44;5102213;28;20553;-71
2022/03/30 07:30:24;;;;;;;6.97;1.55;;;;;;;0.16;58.24;99466.28;5099089;28;20043;-71
2022/03/30 07:32:51;;;;;;;4.95;1.10;;;;;;;0.26;57.79;99455.69;5090611;28;20044;-72
2022/03/30 07:35:19;;;;;;;1.25;1.10;;;;;;;0.86;57.20;99450.47;5079310;28;20119;-72
2022/03/30 07:37:45;;;;;;;3.83;1.25;;;;;;;1.24;56.27;99457.00;5075346;28;20054;-72
2022/03/30 07:40:13;;;;;;;5.20;1.30;;;;;;;1.20;55.61;99461.22;5086313;28;20036;-73
2022/03/30 07:42:39;;;;;;;5.30;1.50;;;;;;;1.02;55.71;99462.31;5078246;28;20036;-72
2022/03/30 07:45:06;;;;;;;2.67;1.42;;;;;;;1.03;55.64;99458.56;5110410;28;20035;-72
2022/03/30 07:47:32;;;;;;;3.28;1.20;;;;;;;0.70;56.48;99464.81;5091738;28;20039;-72
2022/03/30 07:49:59;;;;;;;5.32;1.40;;;;;;;0.86;56.24;99468.56;5089395;28;20442;-72
2022/03/30 07:52:25;;;;;;;5.15;1.13;;;;;;;0.67;57.37;99462.59;5072822;28;20043;-72
2022/03/30 07:54:52;;;;;;;6.63;1.33;;;;;;;0.59;58.18;99457.63;5092045;28;20036;-71
2022/03/30 07:57:20;;;;;;;4.10;1.23;;;;;;;0.57;58.73;99467.84;5056219;28;20044;-72
2022/03/30 07:59:46;;;;;;;4.32;1.20;;;;;;;0.50;59.33;99473.38;5088460;28;20097;-72
2022/03/30 08:02:15;;;;;;;1.85;0.55;;;;;;;0.32;59.77;99473.59;5090568;28;20040;-73
2022/03/30 08:04:41;;;;;;;3.20;1.13;;;;;;;0.37;60.61;99478.28;5091084;28;20043;-72
2022/03/30 08:07:07;;;;;;;4.13;1.00;;;;;;;0.39;60.60;99481.56;5090111;28;20036;-72
2022/03/30 08:09:33;;;;;;;4.70;1.15;;;;;;;0.30;61.58;99481.94;5075873;28;20038;-72
2022/03/30 08:11:58;;;;;;;6.68;1.65;;;;;;;0.52;61.46;99479.38;5102438;28;20122;-72
2022/03/30 08:14:24;;;;;;;4.43;1.10;;;;;;;0.99;61.29;99478.22;5090112;28;20047;-71
2022/03/30 08:16:49;;;;;;;3.25;1.10;;;;;;;1.33;59.40;99482.50;5110855;27;20040;-72
2022/03/30 08:19:15;;;;;;;3.25;0.73;;;;;;;1.22;58.72;99478.03;5134621;27;20537;-71
2022/03/30 08:24:25;;;;;;;1.30;0.90;;;;;;;0.57;59.46;99474.06;5118644;27;20035;-72
2022/03/30 08:26:51;;;;;;;2.28;0.90;;;;;;;0.40;61.05;99492.09;5111044;27;20139;-73
2022/03/30 08:29:16;;;;;;;2.65;1.05;;;;;;;0.60;60.98;99492.47;5086994;28;20517;-72
2022/03/30 08:31:42;;;;;;;2.80;1.30;;;;;;;0.50;60.47;99499.56;5114099;28;20031;-73
2022/03/30 08:34:08;;;;;;;2.70;1.20;;;;;;;0.13;61.41;99496.44;5109214;28;20164;-72
2022/03/30 08:36:34;;;;;;;1.35;0.80;;;;;;;-0.01;62.09;99493.22;5093435;28;20040;-71
2022/03/30 08:39:03;;;;;;;2.10;1.60;;;;;;;-0.18;63.06;99501.22;5093509;28;20048;-73
2022/03/30 08:41:29;;;;;;;1.20;1.10;;;;;;;-0.34;63.53;99502.81;5093289;28;20566;-73
2022/03/30 08:43:54;;;;;;;4.20;1.75;;;;;;;-0.33;63.87;99507.16;5108927;27;20493;-73
2022/03/30 08:46:20;;;;;;;1.27;0.98;;;;;;;-0.41;64.24;99506.69;5110590;27;20485;-72
2022/03/30 08:48:46;;;;;;;1.85;0.75;;;;;;;-0.47;65.20;99513.03;5106703;27;20047;-73
2022/03/30 08:51:12;;;;;;;3.58;0.88;;;;;;;-0.38;65.32;99515.13;5102366;27;20509;-73
2022/03/30 08:53:38;;;;;;;1.77;1.00;;;;;;;-0.39;65.83;99510.78;5087346;28;20482;-73
2022/03/30 08:56:03;;;;;;;3.03;1.27;;;;;;;-0.46;66.20;99517.38;5105211;28;20051;-73
2022/03/30 08:58:29;;;;;;;4.55;0.85;;;;;;;-0.56;66.88;99523.34;5111714;27;20455;-73
2022/03/30 09:01:06;;;;;;;2.47;1.13;;;;;;;-0.69;66.75;99516.34;5110921;27;20117;-73
2022/03/30 09:03:32;;;;;;;1.50;0.80;;;;;;;-0.81;67.75;99525.47;5092443;27;20408;-72
2022/03/30 09:05:58;;;;;;;2.50;1.08;;;;;;;-0.80;68.19;99529.81;5109906;27;20063;-72
2022/03/30 09:08:27;;;;;;;1.05;0.80;;;;;;;-0.82;68.09;99529.22;5112453;28;20417;-72
2022/03/30 09:10:55;;;;;;;1.63;1.05;;;;;;;-0.97;68.63;99522.44;5079534;28;20520;-72
2022/03/30 09:13:21;;;;;;;1.75;1.10;;;;;;;-1.00;69.06;99535.53;5074657;28;20521;-72
2022/03/30 09:15:48;;;;;;;1.20;1.10;;;;;;;-0.99;69.28;99535.31;5058428;28;20039;-73
2022/03/30 09:18:15;;;;;;;2.07;1.50;;;;;;;-0.98;70.18;99533.44;5106051;28;20036;-72
2022/03/30 09:20:50;;;;;;;1.40;1.00;;;;;;;-0.98;69.79;99533.44;5092396;28;20421;-73
2022/03/30 09:23:17;;;;;;;2.75;1.80;;;;;;;-0.92;70.22;99532.50;5106268;28;20043;-72
2022/03/30 09:25:44;;;;;;;3.70;1.52;;;;;;;-1.06;70.14;99536.44;5104810;28;20059;-72
2022/03/30 09:28:10;;;;;;;1.70;1.38;;;;;;;-1.12;70.28;99546.28;5100269;28;20051;-72
2022/03/30 09:30:36;;;;;;;5.38;1.80;;;;;;;-1.00;70.58;99547.13;5098397;28;20516;-72
2022/03/30 09:33:02;;;;;;;3.00;1.90;;;;;;;-0.94;70.52;99539.97;5090747;28;20573;-72
2022/03/30 09:35:30;;;;;;;3.70;1.80;;;;;;;-0.90;69.20;99546.53;5083568;28;20051;-71
2022/03/30 09:38:15;;;;;;;2.17;1.50;;;;;;;-1.03;67.70;99541.41;5098526;27;20494;-72
2022/03/30 09:40:45;;;;;;;4.45;1.67;;;;;;;-1.03;67.71;99546.78;5100091;27;20081;-74
2022/03/30 09:43:19;;;;;;;2.30;1.30;;;;;;;-0.93;67.08;99557.78;5104851;27;20055;-75
2022/03/30 09:45:47;;;;;;;1.65;1.40;;;;;;;-0.84;66.79;99551.00;5108016;27;20391;-72
2022/03/30 09:48:23;;;;;;;3.42;1.45;;;;;;;-0.80;66.54;99543.28;5099286;27;20070;-75
2022/03/30 09:50:54;;;;;;;2.72;1.55;;;;;;;-0.84;66.75;99545.63;5103773;27;21005;-71
2022/03/30 09:53:24;;;;;;;3.53;1.60;;;;;;;-0.83;66.25;99549.13;5099137;27;20051;-72
2022/03/30 09:55:55;;;;;;;3.42;1.88;;;;;;;-0.76;66.36;99544.44;5079595;28;20039;-72
2022/03/30 09:58:21;;;;;;;4.20;1.55;;;;;;;-0.77;66.01;99542.81;5082127;28;20069;-72
2022/03/30 10:01:08;;;;;;;4.75;2.05;;;;;;;-0.78;66.33;99560.03;5097880;28;20130;-71
2022/03/30 10:03:59;;;;;;;2.63;1.35;;;;;;;-0.66;65.71;99550.06;5096044;28;20036;-72
2022/03/30 10:06:32;;;;;;;2.95;1.30;;;;;;;-0.47;65.58;99546.19;5089994;28;20043;-72
2022/03/30 10:08:58;;;;;;;3.28;1.40;;;;;;;-0.32;64.39;99546.53;5094382;28;20105;-72
2022/03/30 10:11:25;;;;;;;3.45;1.35;;;;;;;-0.15;63.81;99551.19;5105438;27;20048;-73
2022/03/30 10:13:56;;;;;;;4.60;1.20;;;;;;;-0.16;63.67;99552.25;5096941;27;20414;-72
2022/03/30 10:16:22;;;;;;;2.92;1.23;;;;;;;-0.29;63.86;99556.00;5103556;27;20040;-73
2022/03/30 10:18:50;;;;;;;5.05;1.30;;;;;;;-0.27;63.85;99562.00;5085350;28;20424;-73
2022/03/30 10:21:26;;;;;;;1.70;1.00;;;;;;;-0.40;64.01;99557.66;5077716;28;20123;-73
2022/03/30 10:23:58;;;;;;;1.80;1.27;;;;;;;-0.44;64.20;99558.38;5098316;28;20050;-72
2022/03/30 10:26:52;;;;;;;3.13;1.20;;;;;;;-0.39;64.30;99564.69;5094198;28;20554;-72
2022/03/30 10:29:21;;;;;;;2.17;1.25;;;;;;;-0.23;64.20;99556.94;5103431;28;20046;-72
2022/03/30 10:32:05;;;;;;;;;;;;;;;-0.17;64.19;99553.31;5103306;28;20042;-72
2022/03/30 10:34:32;;;;;;;1.90;1.38;;;;;;;-0.13;63.81;99560.69;5098534;28;19920;-72
2022/03/30 10:37:09;;;;;;;2.72;1.50;;;;;;;-0.02;64.13;99559.81;5092766;28;20054;-72
2022/03/30 10:39:52;;;;;;;4.13;1.55;;;;;;;-0.15;63.84;99560.09;5092380;28;20474;-72
2022/03/30 10:42:18;;;;;;;2.83;1.52;;;;;;;-0.25;63.93;99557.16;5093218;28;20467;-71
2022/03/30 10:44:51;;;;;;;2.00;1.30;;;;;;;-0.39;64.57;99559.28;5073735;28;20042;-72
2022/03/30 10:47:20;;;;;;;2.40;1.20;;;;;;;-0.49;64.12;99569.88;5103731;28;20447;-72
2022/03/30 10:49:52;;;;;;;2.30;1.00;;;;;;;-0.51;64.24;99569.28;5092803;28;20062;-71
2022/03/30 10:52:33;;;;;;;3.58;1.27;;;;;;;-0.48;64.16;99566.13;5109556;28;20452;-73
2022/03/30 10:55:14;;;;;;;2.15;1.20;;;;;;;-0.63;64.14;99561.19;5094519;28;20044;-72
2022/03/30 10:57:49;;;;;;;2.85;1.35;;;;;;;-0.73;63.87;99557.44;5095292;28;20096;-72
2022/03/30 11:00:36;;;;;;;5.95;1.20;;;;;;;-0.74;64.05;99563.88;5105706;28;20035;-72
2022/03/30 11:03:25;;;;;;;2.33;1.60;;;;;;;-0.82;64.06;99569.63;5081085;28;20126;-73
2022/03/30 11:06:11;;;;;;;1.65;1.13;;;;;;;-0.86;64.10;99563.06;5110286;28;20046;-73
2022/03/30 11:08:38;;;;;;;2.42;1.30;;;;;;;-0.94;64.15;99567.72;5110611;28;20075;-73
2022/03/30 11:11:20;;;;;;;1.83;1.10;;;;;;;-0.95;64.53;99560.72;5096647;28;20027;-73
2022/03/30 11:13:46;;;;;;;3.78;1.30;;;;;;;-0.89;63.10;99560.81;5103125;28;20059;-73
2022/03/30 11:16:12;;;;;;;1.92;1.40;;;;;;;-0.95;63.53;99551.81;5091720;28;20625;-73
2022/03/30 11:18:58;;;;;;;3.08;1.23;;;;;;;-0.94;62.92;99556.13;5078001;28;20046;-82
2022/03/30 11:21:24;;;;;;;2.40;1.10;;;;;;;-0.92;62.59;99544.06;5072562;28;20036;-73
2022/03/30 11:24:08;;;;;;;3.00;1.20;;;;;;;-0.98;62.19;99554.97;5092369;28;20532;-73
2022/03/30 11:26:49;;;;;;;2.95;0.93;;;;;;;-0.97;62.08;99551.22;5090496;28;20104;-70
2022/03/30 11:29:48;;;;;;;3.00;1.10;;;;;;;-0.83;61.79;99559.91;5090519;28;20047;-71
2022/03/30 11:32:22;;;;;;;3.40;1.10;;;;;;;-0.72;62.11;99548.31;5096245;28;20038;-70
2022/03/30 11:35:03;;;;;;;2.80;1.00;;;;;;;-0.68;61.66;99552.19;5092831;28;20572;-71
2022/03/30 11:37:38;;;;;;;3.40;1.10;;;;;;;-0.63;61.45;99563.88;5102092;28;20066;-71
2022/03/30 11:40:09;;;;;;;1.98;0.70;;;;;;;-0.57;62.54;99561.31;5082135;28;20032;-71
2022/03/30 11:42:43;;;;;;;2.50;0.95;;;;;;;-0.61;62.87;99566.34;5078137;28;20056;-71
2022/03/30 11:45:14;;;;;;;4.70;1.20;;;;;;;-0.52;62.73;99562.25;5098060;28;20071;-70